Brownsville South Padre Island International Airport
KBRO : rendu visible

Aérodrome :











RETROUVEZ-NOUS SUR...

 
LOGIN :

S'inscrire | Disclaimer

   EN    FR    IT 

 









Légende :    VFR   VFR Marginal   IFR   IFR Intensif   IFR Très Intensif
Visi : 
Plafond : 
>= 8 km
>= 3000ft
5 à 8 km
1000 à 3000 ft
1500m à 5 km
500 à 1000 ft
800 à 1500m
200 à 500 ft
< 800m
< 200 ft
Symboles :   Orages  Brouillard  Fortes neiges  Fortes précipitations  Vent > 20 kt






- Altitude de l'aérodrome : 22 ft
- Code IATA : BRO


KBRO - Brownsville South Padre Island International

DERNIER METAR :
  • 241415Z 23006KT 10SM SCT009 BKN014 OVC036 22/19 A2985 RMK AO2 RAE01 P0000 T02170194

METARs EXPIRÉS :
  • 241400Z 22006KT 10SM -RA OVC009 22/19 A2985 RMK AO2 CIG 008V014 P0000 T02170194
  • 241353Z 24006KT 10SM -RA OVC010 22/19 A2984 RMK AO2 RAB51 SLP103 P0000 T02170194
  • 241301Z 17010KT 10SM BKN014 BKN023 OVC031 21/19 A2979 RMK AO2 T02110189
  • 241253Z 16010KT 10SM FEW016 SCT023 OVC031 21/19 A2979 RMK AO2 SLP087 T02110189
  • 241235Z 16009KT 10SM SCT010 BKN015 OVC033 21/19 A2979 RMK AO2 T02110189
  • 241219Z 17011KT 10SM BKN009 BKN015 OVC023 21/19 A2979 RMK AO2 CIG 008V011 T02110189
  • 241153Z 17010KT 10SM BKN010 OVC020 21/19 A2978 RMK AO2 CIG 008V014 SLP084 T02110189 10228 20206 55005

TAF KBRO
Valide du 24 à 12h jusqu'au 25 à 12h UTC


241140Z 2412/2512 17010KT P6SM OVC010
FM241700 21009KT P6SM BKN025
FM241900 25012KT P6SM OVC050
FM242000 33010KT P6SM FEW030 BKN200
FM250000 02006KT P6SM BKN200
FM250900 VRB03KT 5SM BR OVC100



MET'MAP, la Météo Aéronautique d'un coup d'oeil ! - Copyright ORBIFLY Décembre 2007 - Disclaimer

ORBIFLY MET'MAP TEAM :

Programmation & Développement : Alexandra Zaïnal
Sur une idée originale de : Baudouin d'Aumeries
Assistance à la programmation : Marc-Olivier Méhu
Soutien technique & logistique : Manuel Goepfert

Contact : metmap@orbifly.com




SOURCES & CREDITS :

   NOAA       Earth
Advisory